Time;durP1;ratioP1;P1;durP2;ratioP2;P2;SDS_P1;SDS_P2;PMS_P1;PMS_P2;Temp;Humidity;BMP_temperature;BMP_pressure;BME280_temperature;BME280_humidity;BME280_pressure;Samples;Min_cycle;Max_cycle;Signal;HPM_P1;HPM_P2
2021/01/22 00:02:22;;;;;;;53.20;31.13;;;;;;;;;;5093604;28;20461;-72
2021/01/22 00:04:48;;;;;;;63.35;34.58;;;;;;;;;;5092465;28;20161;-73
2021/01/22 00:07:14;;;;;;;75.05;37.15;;;;;;;;;;5092552;28;20016;-72
2021/01/22 00:09:40;;;;;;;56.75;29.58;;;;;;;;;;5093127;28;20413;-71
2021/01/22 00:12:07;;;;;;;52.72;27.80;;;;;;;;;;5093533;28;20438;-71
2021/01/22 00:14:33;;;;;;;56.72;30.08;;;;;;;;;;5092316;28;20024;-72
2021/01/22 00:16:59;;;;;;;48.40;27.63;;;;;;;;;;5092477;28;20028;-73
2021/01/22 00:19:25;;;;;;;55.90;31.17;;;;;;;;;;5091802;28;20012;-71
2021/01/22 00:21:51;;;;;;;63.35;33.55;;;;;;;;;;5093458;28;20024;-72
2021/01/22 00:24:17;;;;;;;56.17;29.45;;;;;;;;;;5092501;28;20020;-74
2021/01/22 00:26:43;;;;;;;68.85;35.17;;;;;;;;;;5094143;28;20058;-73
2021/01/22 00:29:09;;;;;;;54.85;29.35;;;;;;;;;;5097694;28;20012;-72
2021/01/22 00:31:35;;;;;;;72.10;33.58;;;;;;;;;;5097421;28;20036;-72
2021/01/22 00:34:02;;;;;;;66.90;37.35;;;;;;;;;;5095968;28;20035;-73
2021/01/22 00:36:28;;;;;;;63.08;31.83;;;;;;;;;;5097321;28;20039;-74
2021/01/22 00:38:54;;;;;;;63.03;32.03;;;;;;;;;;5096226;28;20019;-72
2021/01/22 00:41:20;;;;;;;59.08;33.33;;;;;;;;;;5096449;28;20048;-71
2021/01/22 00:43:46;;;;;;;55.05;29.48;;;;;;;;;;5097740;28;20059;-72
2021/01/22 00:46:12;;;;;;;56.17;30.77;;;;;;;;;;5096098;28;20061;-72
2021/01/22 00:48:38;;;;;;;53.85;29.35;;;;;;;;;;5096535;28;20200;-73
2021/01/22 00:51:05;;;;;;;48.00;26.52;;;;;;;;;;5095978;28;20106;-73
2021/01/22 00:53:31;;;;;;;44.08;25.67;;;;;;;;;;5097162;28;20028;-73
2021/01/22 00:55:57;;;;;;;44.05;27.15;;;;;;;;;;5097238;28;20016;-71
2021/01/22 00:58:23;;;;;;;44.60;28.27;;;;;;;;;;5096016;28;20342;-72
2021/01/22 01:00:49;;;;;;;43.72;23.20;;;;;;;;;;5095776;28;20023;-72
2021/01/22 01:03:15;;;;;;;46.97;23.65;;;;;;;;;;5096595;28;20098;-72
2021/01/22 01:05:41;;;;;;;37.85;22.40;;;;;;;;;;5096857;28;20016;-72
2021/01/22 01:08:07;;;;;;;49.60;24.13;;;;;;;;;;5095671;28;20365;-72
2021/01/22 01:10:33;;;;;;;40.15;21.52;;;;;;;;;;5095307;28;20023;-72
2021/01/22 01:12:59;;;;;;;34.78;19.48;;;;;;;;;;5095517;28;20543;-73
2021/01/22 01:15:25;;;;;;;48.80;26.00;;;;;;;;;;5095300;28;20028;-71
2021/01/22 01:17:51;;;;;;;40.70;20.67;;;;;;;;;;5095187;28;20027;-71
2021/01/22 01:20:17;;;;;;;68.43;32.20;;;;;;;;;;5096438;28;20094;-72
2021/01/22 01:22:44;;;;;;;59.33;29.25;;;;;;;;;;5095977;28;20012;-71
2021/01/22 01:25:10;;;;;;;40.95;23.75;;;;;;;;;;5096293;28;20024;-73
2021/01/22 01:27:36;;;;;;;40.83;21.60;;;;;;;;;;5095290;28;20020;-71
2021/01/22 01:30:03;;;;;;;40.15;21.65;;;;;;;;;;5094939;28;20016;-73
2021/01/22 01:32:29;;;;;;;41.08;20.23;;;;;;;;;;5094747;28;20541;-72
2021/01/22 01:34:55;;;;;;;39.20;21.27;;;;;;;;;;5094796;28;20081;-71
2021/01/22 01:37:22;;;;;;;43.28;22.00;;;;;;;;;;5094694;28;20376;-74
2021/01/22 01:39:48;;;;;;;38.63;20.70;;;;;;;;;;5094021;28;20016;-73
2021/01/22 01:42:14;;;;;;;39.97;20.67;;;;;;;;;;5095610;28;20012;-73
2021/01/22 01:44:40;;;;;;;39.70;22.08;;;;;;;;;;5094739;28;20023;-73
2021/01/22 01:47:06;;;;;;;36.50;22.02;;;;;;;;;;5094900;28;20023;-72
2021/01/22 01:49:33;;;;;;;36.55;17.48;;;;;;;;;;5094902;28;20008;-71
2021/01/22 01:51:59;;;;;;;46.67;23.23;;;;;;;;;;5094224;28;20024;-72
2021/01/22 01:54:25;;;;;;;32.13;17.63;;;;;;;;;;5094785;28;20082;-71
2021/01/22 01:56:52;;;;;;;36.80;21.08;;;;;;;;;;5094746;28;20026;-71
2021/01/22 01:59:18;;;;;;;41.72;22.17;;;;;;;;;;5094262;28;20023;-72
2021/01/22 02:01:45;;;;;;;34.97;15.23;;;;;;;;;;5094491;28;20020;-73
2021/01/22 02:04:11;;;;;;;40.47;19.23;;;;;;;;;;5096218;28;20104;-71
2021/01/22 02:06:37;;;;;;;42.33;19.47;;;;;;;;;;5094332;28;20024;-70
2021/01/22 02:09:04;;;;;;;38.40;19.27;;;;;;;;;;5094191;28;20081;-69
2021/01/22 02:11:31;;;;;;;38.20;19.83;;;;;;;;;;5095487;28;20012;-72
2021/01/22 02:13:57;;;;;;;29.02;15.75;;;;;;;;;;5095612;28;20020;-74
2021/01/22 02:16:24;;;;;;;26.85;14.73;;;;;;;;;;5095673;28;20051;-75
2021/01/22 02:18:53;;;;;;;34.92;16.38;;;;;;;;;;5093963;28;20021;-74
2021/01/22 02:21:22;;;;;;;26.60;14.70;;;;;;;;;;5094783;28;20058;-74
2021/01/22 02:23:49;;;;;;;28.48;14.10;;;;;;;;;;5094428;28;20224;-72
2021/01/22 02:26:21;;;;;;;29.23;15.05;;;;;;;;;;5095471;28;20024;-74
2021/01/22 02:28:49;;;;;;;29.75;15.32;;;;;;;;;;5094148;28;20024;-73
2021/01/22 02:31:16;;;;;;;31.20;14.57;;;;;;;;;;5094919;28;20040;-74
2021/01/22 02:33:44;;;;;;;38.65;16.83;;;;;;;;;;5093721;28;20032;-74
2021/01/22 02:36:12;;;;;;;33.50;17.00;;;;;;;;;;5093990;28;20445;-74
2021/01/22 02:38:40;;;;;;;25.15;14.93;;;;;;;;;;5094927;28;20614;-73
2021/01/22 02:41:07;;;;;;;28.50;14.38;;;;;;;;;;5093691;28;20023;-73
2021/01/22 02:43:33;;;;;;;30.98;18.48;;;;;;;;;;5095118;28;20360;-73
2021/01/22 02:45:59;;;;;;;29.00;15.10;;;;;;;;;;5093514;28;20032;-73
2021/01/22 02:48:26;;;;;;;34.92;16.42;;;;;;;;;;5094450;28;20012;-73
2021/01/22 02:50:52;;;;;;;34.45;15.05;;;;;;;;;;5093584;28;20059;-74
2021/01/22 02:53:18;;;;;;;40.17;17.20;;;;;;;;;;5093607;28;20089;-73
2021/01/22 02:55:44;;;;;;;44.17;15.27;;;;;;;;;;5094435;28;20360;-72
2021/01/22 02:58:17;;;;;;;30.67;16.20;;;;;;;;;;5094664;28;20024;-72
2021/01/22 03:00:49;;;;;;;50.72;23.98;;;;;;;;;;5094844;28;20055;-73
2021/01/22 03:03:26;;;;;;;149.13;56.97;;;;;;;;;;5094313;28;20153;-72
2021/01/22 03:05:56;;;;;;;90.95;36.08;;;;;;;;;;5093587;28;20016;-72
2021/01/22 03:08:23;;;;;;;102.43;39.97;;;;;;;;;;5094247;28;20040;-73
2021/01/22 03:10:50;;;;;;;81.78;35.22;;;;;;;;;;5093326;28;20490;-73
2021/01/22 03:13:17;;;;;;;70.00;32.72;;;;;;;;;;5093792;28;20357;-72
2021/01/22 03:15:44;;;;;;;50.93;26.10;;;;;;;;;;5094067;28;20356;-73
2021/01/22 03:18:14;;;;;;;38.22;23.00;;;;;;;;;;5094273;28;20024;-71
2021/01/22 03:20:41;;;;;;;35.95;19.30;;;;;;;;;;5093171;28;20020;-72
2021/01/22 03:23:07;;;;;;;37.70;21.38;;;;;;;;;;5092885;28;20024;-70
2021/01/22 03:25:33;;;;;;;30.35;19.83;;;;;;;;;;5093093;28;20012;-72
2021/01/22 03:27:59;;;;;;;27.35;18.65;;;;;;;;;;5093120;28;20047;-72
2021/01/22 03:30:26;;;;;;;34.22;17.30;;;;;;;;;;5092245;28;20024;-72
2021/01/22 03:32:52;;;;;;;26.77;14.77;;;;;;;;;;5094187;28;20016;-72
2021/01/22 03:35:18;;;;;;;36.10;20.20;;;;;;;;;;5092918;28;20042;-72
2021/01/22 03:37:45;;;;;;;51.40;26.10;;;;;;;;;;5093420;28;20024;-72
2021/01/22 03:40:11;;;;;;;41.92;17.85;;;;;;;;;;5094433;28;20062;-73
2021/01/22 03:42:37;;;;;;;45.47;24.23;;;;;;;;;;5093803;28;20346;-72
2021/01/22 03:45:04;;;;;;;30.67;15.98;;;;;;;;;;5092613;28;20023;-71
2021/01/22 03:47:30;;;;;;;29.63;14.50;;;;;;;;;;5094077;28;20465;-71
2021/01/22 03:49:56;;;;;;;36.17;15.90;;;;;;;;;;5093860;28;20020;-72
2021/01/22 03:52:22;;;;;;;26.95;14.13;;;;;;;;;;5094127;28;20023;-72
2021/01/22 03:54:48;;;;;;;24.70;14.25;;;;;;;;;;5094096;28;20081;-71
2021/01/22 03:57:14;;;;;;;19.50;11.07;;;;;;;;;;5094012;28;20048;-73
2021/01/22 03:59:40;;;;;;;18.08;12.32;;;;;;;;;;5093780;28;20027;-72
2021/01/22 04:02:06;;;;;;;27.95;15.20;;;;;;;;;;5096604;28;20024;-73
2021/01/22 04:04:32;;;;;;;22.58;12.13;;;;;;;;;;5099271;28;20337;-72
2021/01/22 04:06:59;;;;;;;20.55;12.60;;;;;;;;;;5099355;28;20078;-73
2021/01/22 04:09:25;;;;;;;21.27;12.23;;;;;;;;;;5100897;28;20098;-73
2021/01/22 04:11:51;;;;;;;22.30;13.00;;;;;;;;;;5100321;28;20016;-73
2021/01/22 04:14:17;;;;;;;24.73;13.00;;;;;;;;;;5100252;28;20020;-72
2021/01/22 04:16:43;;;;;;;24.77;13.35;;;;;;;;;;5099059;28;20111;-72
2021/01/22 04:19:09;;;;;;;20.48;12.95;;;;;;;;;;5099735;28;20368;-68
2021/01/22 04:21:35;;;;;;;25.90;11.95;;;;;;;;;;5098583;28;20016;-69
2021/01/22 04:24:01;;;;;;;22.77;11.90;;;;;;;;;;5100683;28;20020;-71
2021/01/22 04:26:28;;;;;;;23.13;12.70;;;;;;;;;;5098687;28;20024;-72
2021/01/22 04:28:57;;;;;;;26.80;14.10;;;;;;;;;;5099831;28;20007;-70
2021/01/22 04:31:24;;;;;;;34.03;17.00;;;;;;;;;;5098935;28;20383;-70
2021/01/22 04:33:50;;;;;;;23.65;14.30;;;;;;;;;;5098505;28;20460;-71
2021/01/22 04:36:17;;;;;;;27.25;12.50;;;;;;;;;;5098357;28;20461;-71
2021/01/22 04:38:43;;;;;;;22.25;11.95;;;;;;;;;;5099683;28;20401;-71
2021/01/22 04:41:11;;;;;;;20.25;12.35;;;;;;;;;;5098057;28;20115;-72
2021/01/22 04:43:44;;;;;;;24.83;12.93;;;;;;;;;;5100021;28;20023;-71
2021/01/22 04:46:10;;;;;;;20.13;12.05;;;;;;;;;;5098240;28;20028;-71
2021/01/22 04:48:37;;;;;;;21.98;11.68;;;;;;;;;;5098830;28;20020;-71
2021/01/22 04:51:04;;;;;;;16.38;10.75;;;;;;;;;;5099016;28;20115;-72
2021/01/22 04:53:31;;;;;;;20.60;11.55;;;;;;;;;;5099615;28;20077;-72
2021/01/22 04:55:57;;;;;;;25.00;13.23;;;;;;;;;;5098422;28;20391;-70
2021/01/22 04:58:24;;;;;;;24.83;12.45;;;;;;;;;;5099946;28;20345;-70
2021/01/22 05:00:50;;;;;;;27.47;11.73;;;;;;;;;;5099559;28;20338;-70
2021/01/22 05:03:18;;;;;;;24.98;13.32;;;;;;;;;;5098197;28;20028;-71
2021/01/22 05:05:45;;;;;;;30.50;12.65;;;;;;;;;;5098857;28;20047;-74
2021/01/22 05:08:11;;;;;;;23.63;11.30;;;;;;;;;;5099125;28;20020;-71
2021/01/22 05:10:37;;;;;;;26.75;11.07;;;;;;;;;;5096906;28;20161;-72
2021/01/22 05:13:03;;;;;;;21.80;10.65;;;;;;;;;;5095890;28;20345;-71
2021/01/22 05:15:30;;;;;;;19.55;10.98;;;;;;;;;;5093445;28;20020;-72
2021/01/22 05:17:59;;;;;;;24.55;10.63;;;;;;;;;;5094283;28;20519;-71
2021/01/22 05:20:29;;;;;;;19.67;11.55;;;;;;;;;;5093661;28;20015;-72
2021/01/22 05:22:56;;;;;;;22.15;9.70;;;;;;;;;;5093360;28;20506;-71
2021/01/22 05:25:22;;;;;;;20.75;12.73;;;;;;;;;;5096689;28;20467;-70
2021/01/22 05:27:49;;;;;;;18.75;9.95;;;;;;;;;;5096034;28;20358;-71
2021/01/22 05:30:16;;;;;;;16.95;9.60;;;;;;;;;;5095206;28;20103;-71
2021/01/22 05:32:42;;;;;;;21.38;10.13;;;;;;;;;;5096248;28;20054;-73
2021/01/22 05:35:08;;;;;;;16.92;9.77;;;;;;;;;;5096166;28;20023;-73
2021/01/22 05:37:49;;;;;;;22.17;11.82;;;;;;;;;;5094945;28;20425;-70
2021/01/22 05:40:15;;;;;;;23.20;10.52;;;;;;;;;;5096427;28;20094;-70
2021/01/22 05:42:50;;;;;;;32.13;13.38;;;;;;;;;;5096035;28;20031;-73
2021/01/22 05:45:17;;;;;;;49.47;23.10;;;;;;;;;;5096039;28;20077;-70
2021/01/22 05:47:44;;;;;;;143.98;52.55;;;;;;;;;;5111564;28;20016;-70
2021/01/22 05:50:10;;;;;;;175.68;96.53;;;;;;;;;;5095140;28;20024;-72
2021/01/22 05:52:36;;;;;;;74.13;43.93;;;;;;;;;;5096171;28;20082;-74
2021/01/22 05:55:18;;;;;;;62.83;33.72;;;;;;;;;;5094612;28;20315;-72
2021/01/22 05:57:45;;;;;;;42.67;21.38;;;;;;;;;;5094495;28;20016;-72
2021/01/22 06:00:12;;;;;;;81.40;38.03;;;;;;;;;;5095516;28;20510;-72
2021/01/22 06:02:38;;;;;;;73.50;32.97;;;;;;;;;;5094438;28;20373;-72
2021/01/22 06:05:07;;;;;;;106.57;50.47;;;;;;;;;;5095892;28;20031;-71
2021/01/22 06:07:38;;;;;;;67.15;31.77;;;;;;;;;;5094531;28;20012;-73
2021/01/22 06:10:14;;;;;;;112.22;44.83;;;;;;;;;;5094281;28;20023;-73
2021/01/22 06:12:48;;;;;;;109.63;55.63;;;;;;;;;;5093766;28;20110;-72
2021/01/22 06:15:16;;;;;;;84.55;45.03;;;;;;;;;;5094690;28;20406;-74
2021/01/22 06:17:45;;;;;;;50.38;29.80;;;;;;;;;;5095599;28;20026;-73
2021/01/22 06:20:14;;;;;;;67.00;37.83;;;;;;;;;;5094223;28;20047;-74
2021/01/22 06:22:40;;;;;;;97.57;55.67;;;;;;;;;;5094052;28;20115;-74
2021/01/22 06:25:07;;;;;;;78.45;46.38;;;;;;;;;;5093491;28;20019;-73
2021/01/22 06:27:34;;;;;;;79.75;46.13;;;;;;;;;;5094437;28;20024;-72
2021/01/22 06:30:01;;;;;;;45.17;28.52;;;;;;;;;;5093880;28;20024;-73
2021/01/22 06:32:29;;;;;;;26.55;15.88;;;;;;;;;;5093425;28;20043;-71
2021/01/22 06:34:57;;;;;;;41.65;23.27;;;;;;;;;;5095299;28;20108;-72
2021/01/22 06:37:24;;;;;;;24.67;14.15;;;;;;;;;;5093781;28;20025;-71
2021/01/22 06:39:52;;;;;;;27.33;16.90;;;;;;;;;;5093679;28;20023;-74
2021/01/22 06:42:19;;;;;;;31.35;14.60;;;;;;;;;;5094872;28;20051;-76
2021/01/22 06:44:45;;;;;;;46.55;29.50;;;;;;;;;;5096288;28;20419;-73
2021/01/22 06:47:12;;;;;;;35.65;18.42;;;;;;;;;;5093458;28;20076;-71
2021/01/22 06:49:39;;;;;;;39.50;24.00;;;;;;;;;;5093821;28;20016;-69
2021/01/22 06:52:12;;;;;;;29.10;16.63;;;;;;;;;;5094438;28;20020;-71
2021/01/22 06:55:04;;;;;;;43.33;23.08;;;;;;;;;;5095173;28;20028;-71
2021/01/22 06:57:30;;;;;;;45.15;22.90;;;;;;;;;;5093664;28;20028;-70
2021/01/22 06:59:57;;;;;;;34.55;16.20;;;;;;;;;;5094841;28;20039;-71
2021/01/22 07:02:33;;;;;;;28.77;17.02;;;;;;;;;;5095141;28;20023;-73
2021/01/22 07:04:59;;;;;;;50.58;26.05;;;;;;;;;;5093502;28;20024;-68
2021/01/22 07:07:44;;;;;;;53.87;29.47;;;;;;;;;;5092669;28;20020;-70
2021/01/22 07:10:11;;;;;;;88.20;42.55;;;;;;;;;;5074504;28;20078;-71
2021/01/22 07:12:37;;;;;;;54.30;28.77;;;;;;;;;;5074622;28;20024;-68
2021/01/22 07:15:24;;;;;;;43.55;23.95;;;;;;;;;;5085920;28;20542;-69
2021/01/22 07:17:50;;;;;;;;;;;;;;;;;;5094955;28;20042;-69
2021/01/22 07:20:16;;;;;;;51.75;30.02;;;;;;;;;;5093947;28;20348;-70
2021/01/22 07:23:01;;;;;;;60.20;36.42;;;;;;;;;;5093165;28;20524;-71
2021/01/22 07:25:33;;;;;;;41.72;26.38;;;;;;;;;;5094455;28;20023;-67
2021/01/22 07:28:07;;;;;;;41.88;24.33;;;;;;;;;;5093269;28;20043;-68
2021/01/22 07:30:37;;;;;;;42.22;24.05;;;;;;;;;;5094353;28;20020;-69
2021/01/22 07:33:23;;;;;;;34.28;23.20;;;;;;;;;;5092681;28;20020;-70
2021/01/22 07:35:50;;;;;;;29.05;17.02;;;;;;;;;;5092497;28;20460;-71
2021/01/22 07:38:22;;;;;;;40.03;23.98;;;;;;;;;;5092791;28;20122;-70
2021/01/22 07:40:48;;;;;;;36.45;19.27;;;;;;;;;;5089485;28;20023;-71
2021/01/22 07:43:15;;;;;;;32.70;18.55;;;;;;;;;;5072692;28;20052;-72
2021/01/22 07:45:41;;;;;;;33.72;18.23;;;;;;;;;;5078367;28;20023;-70
2021/01/22 07:48:07;;;;;;;30.67;16.48;;;;;;;;;;5092582;28;20609;-69
2021/01/22 07:50:33;;;;;;;27.70;14.65;;;;;;;;;;5092714;28;20046;-69
2021/01/22 07:52:59;;;;;;;29.77;16.67;;;;;;;;;;5093876;28;20020;-70
2021/01/22 07:55:26;;;;;;;29.52;16.75;;;;;;;;;;5108772;28;20016;-66
2021/01/22 07:58:02;;;;;;;33.58;18.83;;;;;;;;;;5094366;28;20027;-69
2021/01/22 08:00:36;;;;;;;32.27;17.37;;;;;;;;;;5094053;28;20020;-69
2021/01/22 08:03:02;;;;;;;38.55;20.00;;;;;;;;;;5093758;28;20024;-68
2021/01/22 08:05:33;;;;;;;40.47;24.58;;;;;;;;;;5092953;28;20031;-67
2021/01/22 08:07:59;;;;;;;53.28;27.75;;;;;;;;;;5089905;28;20023;-68
2021/01/22 08:10:29;;;;;;;35.30;21.73;;;;;;;;;;5090898;28;20448;-70
2021/01/22 08:12:56;;;;;;;41.22;27.95;;;;;;;;;;5089690;28;20012;-68
2021/01/22 08:15:23;;;;;;;38.53;21.67;;;;;;;;;;5092511;28;20035;-68
2021/01/22 08:17:49;;;;;;;42.60;22.10;;;;;;;;;;5087752;28;20095;-68
2021/01/22 08:20:17;;;;;;;45.37;28.93;;;;;;;;;;5089914;28;20020;-70
2021/01/22 08:22:43;;;;;;;37.70;19.92;;;;;;;;;;5092331;28;20040;-66
2021/01/22 08:25:10;;;;;;;36.00;21.55;;;;;;;;;;5091601;28;20016;-68
2021/01/22 08:27:36;;;;;;;41.90;27.52;;;;;;;;;;5089381;28;20036;-68
2021/01/22 08:30:04;;;;;;;34.90;18.40;;;;;;;;;;5091539;28;20020;-67
2021/01/22 08:32:31;;;;;;;39.13;22.23;;;;;;;;;;5092194;28;20074;-67
2021/01/22 08:34:57;;;;;;;51.53;28.95;;;;;;;;;;5092104;28;20082;-70
2021/01/22 08:37:24;;;;;;;61.83;33.17;;;;;;;;;;5091586;28;20027;-68
2021/01/22 08:39:51;;;;;;;69.30;39.67;;;;;;;;;;5091956;28;20024;-67
2021/01/22 08:42:17;;;;;;;;;;;;;;;;;;5092305;28;20020;-68
2021/01/22 08:44:57;;;;;;;69.28;36.90;;;;;;;;;;5091533;28;19973;-70
2021/01/22 08:47:24;;;;;;;71.13;35.92;;;;;;;;;;5093451;28;20019;-69
2021/01/22 08:50:00;;;;;;;77.80;35.77;;;;;;;;;;5095862;28;20119;-68
2021/01/22 08:52:27;;;;;;;82.35;40.67;;;;;;;;;;5096380;28;20049;-68
2021/01/22 08:54:58;;;;;;;46.95;24.70;;;;;;;;;;5096805;28;20058;-66
2021/01/22 08:57:25;;;;;;;60.63;33.83;;;;;;;;;;5095970;28;20469;-67
2021/01/22 08:59:55;;;;;;;57.88;33.10;;;;;;;;;;5096652;28;20110;-66
2021/01/22 09:02:37;;;;;;;46.53;30.75;;;;;;;;;;5096975;28;20021;-67
2021/01/22 09:05:04;;;;;;;48.50;27.17;;;;;;;;;;5094853;28;20077;-67
2021/01/22 09:07:30;;;;;;;67.45;38.58;;;;;;;;;;5096926;28;20055;-65
2021/01/22 09:09:56;;;;;;;51.20;26.40;;;;;;;;;;5096742;28;20061;-64
2021/01/22 09:12:22;;;;;;;40.42;24.38;;;;;;;;;;5096163;28;20016;-66
2021/01/22 09:14:49;;;;;;;46.15;30.80;;;;;;;;;;5097032;28;20522;-68
2021/01/22 09:17:35;;;;;;;46.00;29.00;;;;;;;;;;5096631;28;20016;-66
2021/01/22 09:20:04;;;;;;;43.47;22.92;;;;;;;;;;5111658;28;20027;-66
2021/01/22 09:22:31;;;;;;;59.67;34.92;;;;;;;;;;5095155;28;20075;-67
2021/01/22 09:24:58;;;;;;;43.67;22.95;;;;;;;;;;5096624;28;20024;-67
2021/01/22 09:27:24;;;;;;;46.90;27.92;;;;;;;;;;5079473;28;20459;-69
2021/01/22 09:29:50;;;;;;;40.60;25.20;;;;;;;;;;5091222;28;20020;-67
2021/01/22 09:32:17;;;;;;;51.97;28.13;;;;;;;;;;5096011;28;20089;-67
2021/01/22 09:34:47;;;;;;;53.00;27.63;;;;;;;;;;5096127;28;20092;-68
2021/01/22 09:37:14;;;;;;;36.70;21.40;;;;;;;;;;5095785;28;20024;-66
2021/01/22 09:39:40;;;;;;;45.83;22.27;;;;;;;;;;5095774;28;20024;-65
2021/01/22 09:42:06;;;;;;;38.40;21.70;;;;;;;;;;5096048;28;20044;-66
2021/01/22 09:44:32;;;;;;;41.90;23.08;;;;;;;;;;5094758;28;20052;-65
2021/01/22 09:46:59;;;;;;;45.47;23.08;;;;;;;;;;5095472;28;20026;-65
2021/01/22 09:49:25;;;;;;;42.38;22.67;;;;;;;;;;5094372;28;20081;-65
2021/01/22 09:51:51;;;;;;;41.45;25.83;;;;;;;;;;5095620;28;20089;-66
2021/01/22 09:54:17;;;;;;;59.28;32.25;;;;;;;;;;5094132;28;20127;-66
2021/01/22 09:56:43;;;;;;;47.67;27.60;;;;;;;;;;5096100;28;20069;-65
2021/01/22 09:59:10;;;;;;;49.17;26.63;;;;;;;;;;5094802;28;20032;-66
2021/01/22 10:01:36;;;;;;;46.60;26.25;;;;;;;;;;5094692;28;20020;-66
2021/01/22 10:04:03;;;;;;;49.58;26.65;;;;;;;;;;5095386;28;20107;-67
2021/01/22 10:06:29;;;;;;;46.87;25.47;;;;;;;;;;5095388;28;20081;-68
2021/01/22 10:08:55;;;;;;;50.38;27.17;;;;;;;;;;5093984;28;20365;-66
2021/01/22 10:11:22;;;;;;;44.15;22.92;;;;;;;;;;5095288;28;20016;-66
2021/01/22 10:13:57;;;;;;;49.95;27.98;;;;;;;;;;5095718;28;20020;-67
2021/01/22 10:16:25;;;;;;;43.25;21.30;;;;;;;;;;5095666;28;20326;-67
2021/01/22 10:18:52;;;;;;;50.13;26.17;;;;;;;;;;5095036;28;20072;-68
2021/01/22 10:21:18;;;;;;;71.72;41.13;;;;;;;;;;5095544;28;20467;-67
2021/01/22 10:23:45;;;;;;;49.88;29.08;;;;;;;;;;5095069;28;20020;-67
2021/01/22 10:26:11;;;;;;;78.25;42.50;;;;;;;;;;5095569;28;20012;-64
2021/01/22 10:28:37;;;;;;;47.10;26.65;;;;;;;;;;5095826;28;20023;-69
2021/01/22 10:31:03;;;;;;;61.22;31.60;;;;;;;;;;5093208;28;20048;-66
2021/01/22 10:33:29;;;;;;;35.00;22.60;;;;;;;;;;5094933;28;20038;-67
2021/01/22 10:35:56;;;;;;;41.78;22.77;;;;;;;;;;5094160;28;20119;-66
2021/01/22 10:38:22;;;;;;;24.42;13.93;;;;;;;;;;5083476;28;20066;-68
2021/01/22 10:40:48;;;;;;;37.55;19.35;;;;;;;;;;5090443;28;20106;-69
2021/01/22 10:43:17;;;;;;;37.30;21.98;;;;;;;;;;5093731;28;20069;-70
2021/01/22 10:45:43;;;;;;;40.20;22.38;;;;;;;;;;5094540;28;20019;-68
2021/01/22 10:48:10;;;;;;;54.60;29.35;;;;;;;;;;5092906;28;20023;-67
2021/01/22 10:50:36;;;;;;;52.13;30.52;;;;;;;;;;5093246;28;20024;-67
2021/01/22 10:53:02;;;;;;;51.03;29.40;;;;;;;;;;5093321;28;20028;-66
2021/01/22 10:55:28;;;;;;;39.80;22.63;;;;;;;;;;5093027;28;20082;-65
2021/01/22 10:57:54;;;;;;;37.30;21.15;;;;;;;;;;5091801;28;20018;-65
2021/01/22 11:00:20;;;;;;;37.33;22.70;;;;;;;;;;5092541;28;20471;-67
2021/01/22 11:02:47;;;;;;;40.03;21.42;;;;;;;;;;5093650;28;20092;-68
2021/01/22 11:05:13;;;;;;;44.67;26.38;;;;;;;;;;5092438;28;20077;-65
2021/01/22 11:07:39;;;;;;;40.17;23.48;;;;;;;;;;5092954;28;20012;-68
2021/01/22 11:10:06;;;;;;;33.90;20.83;;;;;;;;;;5092946;28;21435;-67
2021/01/22 11:12:32;;;;;;;32.43;19.30;;;;;;;;;;5092315;28;20008;-70
2021/01/22 11:14:58;;;;;;;35.40;20.15;;;;;;;;;;5090177;28;20016;-70
2021/01/22 11:17:24;;;;;;;33.45;19.48;;;;;;;;;;5091890;28;20360;-68
2021/01/22 11:19:50;;;;;;;28.73;14.48;;;;;;;;;;5091370;28;20187;-68
2021/01/22 11:22:16;;;;;;;28.33;17.17;;;;;;;;;;5089397;28;20032;-68
2021/01/22 11:24:42;;;;;;;32.13;18.60;;;;;;;;;;5092554;28;20388;-69
2021/01/22 11:27:08;;;;;;;32.75;18.90;;;;;;;;;;5091397;28;20013;-68
2021/01/22 11:29:35;;;;;;;29.65;17.20;;;;;;;;;;5092654;28;20516;-69
2021/01/22 11:32:01;;;;;;;30.10;17.00;;;;;;;;;;5092397;28;20040;-70
2021/01/22 11:34:27;;;;;;;28.17;15.82;;;;;;;;;;5092589;28;20465;-68
2021/01/22 11:36:53;;;;;;;35.42;17.20;;;;;;;;;;5092012;28;20106;-69
2021/01/22 11:39:19;;;;;;;26.08;13.95;;;;;;;;;;5092071;28;20016;-68
2021/01/22 11:41:45;;;;;;;25.95;12.18;;;;;;;;;;5093529;28;20035;-69
2021/01/22 11:44:11;;;;;;;21.13;13.95;;;;;;;;;;5093296;28;20107;-68
2021/01/22 11:46:40;;;;;;;22.55;13.40;;;;;;;;;;5091912;28;20020;-68
2021/01/22 11:49:06;;;;;;;23.92;14.23;;;;;;;;;;5092386;28;20160;-69
2021/01/22 11:51:33;;;;;;;29.27;16.50;;;;;;;;;;5092742;28;20020;-68
2021/01/22 11:53:59;;;;;;;31.20;17.40;;;;;;;;;;5093521;28;20028;-70
2021/01/22 11:56:26;;;;;;;44.63;24.88;;;;;;;;;;5093928;28;20048;-69
2021/01/22 11:58:52;;;;;;;39.55;21.65;;;;;;;;;;5092067;28;20376;-69
2021/01/22 12:01:18;;;;;;;34.58;19.63;;;;;;;;;;5093054;28;20334;-68
2021/01/22 12:03:44;;;;;;;25.55;16.52;;;;;;;;;;5093214;28;20046;-69
2021/01/22 12:06:10;;;;;;;34.78;19.85;;;;;;;;;;5093806;28;20016;-69
2021/01/22 12:08:40;;;;;;;27.48;14.60;;;;;;;;;;5093165;28;20412;-71
2021/01/22 12:11:06;;;;;;;30.77;15.18;;;;;;;;;;5093483;28;20016;-70
2021/01/22 12:13:32;;;;;;;64.13;32.90;;;;;;;;;;5093759;28;20020;-70
2021/01/22 12:15:58;;;;;;;60.95;31.80;;;;;;;;;;5093372;28;20020;-69
2021/01/22 12:18:24;;;;;;;38.30;21.95;;;;;;;;;;5093038;28;20361;-69
2021/01/22 12:20:50;;;;;;;40.47;20.92;;;;;;;;;;5093096;28;20103;-70
2021/01/22 12:23:17;;;;;;;59.65;31.50;;;;;;;;;;5095061;28;20081;-70
2021/01/22 12:25:46;;;;;;;47.45;23.73;;;;;;;;;;5097632;28;20024;-71
2021/01/22 12:28:15;;;;;;;27.95;17.05;;;;;;;;;;5097181;28;20496;-69
2021/01/22 12:30:42;;;;;;;37.83;20.02;;;;;;;;;;5096200;28;20044;-70
2021/01/22 12:33:08;;;;;;;37.77;25.60;;;;;;;;;;5096360;28;20102;-69
2021/01/22 12:35:34;;;;;;;29.85;16.92;;;;;;;;;;5096788;28;20113;-68
2021/01/22 12:38:00;;;;;;;32.40;17.20;;;;;;;;;;5095881;28;20055;-69
2021/01/22 12:40:27;;;;;;;31.73;20.02;;;;;;;;;;5097483;28;20022;-69
2021/01/22 12:42:53;;;;;;;30.30;17.35;;;;;;;;;;5096899;28;20066;-69
2021/01/22 12:45:24;;;;;;;35.45;21.90;;;;;;;;;;5097379;28;20047;-70
2021/01/22 12:47:50;;;;;;;31.50;19.55;;;;;;;;;;5096009;28;20103;-70
2021/01/22 12:50:16;;;;;;;33.05;18.60;;;;;;;;;;5096683;28;20016;-70
2021/01/22 12:52:43;;;;;;;28.70;17.25;;;;;;;;;;5096894;28;20475;-71
2021/01/22 12:55:10;;;;;;;28.48;15.30;;;;;;;;;;5096854;28;20399;-70
2021/01/22 12:57:36;;;;;;;22.80;14.13;;;;;;;;;;5096647;28;20101;-69
2021/01/22 13:00:04;;;;;;;20.80;13.02;;;;;;;;;;5097003;28;20055;-68
2021/01/22 13:02:30;;;;;;;27.42;16.45;;;;;;;;;;5096546;28;20012;-68
2021/01/22 13:04:57;;;;;;;22.55;12.85;;;;;;;;;;5095501;28;20016;-67
2021/01/22 13:07:23;;;;;;;30.10;15.50;;;;;;;;;;5096138;28;20051;-68
2021/01/22 13:09:49;;;;;;;31.10;15.05;;;;;;;;;;5096269;28;20061;-68
2021/01/22 13:12:15;;;;;;;26.05;16.02;;;;;;;;;;5096511;28;20043;-70
2021/01/22 13:14:41;;;;;;;30.15;14.73;;;;;;;;;;5096514;28;20027;-69
2021/01/22 13:17:08;;;;;;;27.63;18.33;;;;;;;;;;5095577;28;20031;-69
2021/01/22 13:19:34;;;;;;;27.70;15.80;;;;;;;;;;5096705;28;20021;-68
2021/01/22 13:22:00;;;;;;;28.10;15.88;;;;;;;;;;5096264;28;20085;-70
2021/01/22 13:24:26;;;;;;;34.72;20.45;;;;;;;;;;5096280;28;20464;-69
2021/01/22 13:26:52;;;;;;;33.20;19.85;;;;;;;;;;5095308;28;20016;-69
2021/01/22 13:29:19;;;;;;;31.65;17.95;;;;;;;;;;5096562;28;20028;-70
2021/01/22 13:31:48;;;;;;;39.47;21.88;;;;;;;;;;5095764;28;20046;-69
2021/01/22 13:34:14;;;;;;;42.47;24.58;;;;;;;;;;5095506;28;20024;-68
2021/01/22 13:36:41;;;;;;;44.22;23.13;;;;;;;;;;5096167;28;20016;-69
2021/01/22 13:39:07;;;;;;;33.20;21.42;;;;;;;;;;5095920;28;20073;-70
2021/01/22 13:41:33;;;;;;;51.17;29.30;;;;;;;;;;5096243;28;20028;-69
2021/01/22 13:44:02;;;;;;;56.83;29.55;;;;;;;;;;5095712;28;20032;-72
2021/01/22 13:46:29;;;;;;;57.35;31.38;;;;;;;;;;5095145;28;20407;-71
2021/01/22 13:48:55;;;;;;;49.10;29.45;;;;;;;;;;5094599;28;20073;-69
2021/01/22 13:51:21;;;;;;;51.10;30.05;;;;;;;;;;5094658;28;20369;-73
2021/01/22 13:53:47;;;;;;;46.75;28.40;;;;;;;;;;5094178;28;20028;-69
2021/01/22 13:56:14;;;;;;;62.95;33.92;;;;;;;;;;5096110;28;20016;-73
2021/01/22 13:58:40;;;;;;;53.63;29.42;;;;;;;;;;5096211;28;20117;-70
2021/01/22 14:01:06;;;;;;;54.75;29.42;;;;;;;;;;5094367;28;20065;-69
2021/01/22 14:03:33;;;;;;;40.50;22.90;;;;;;;;;;5094510;28;20089;-70
2021/01/22 14:05:59;;;;;;;47.60;28.02;;;;;;;;;;5095018;28;20034;-72
2021/01/22 14:08:25;;;;;;;49.42;28.17;;;;;;;;;;5093927;28;20016;-71
2021/01/22 14:10:51;;;;;;;38.37;21.53;;;;;;;;;;5095774;28;20047;-71
2021/01/22 14:13:17;;;;;;;43.05;24.75;;;;;;;;;;5093628;28;20257;-73
2021/01/22 14:15:43;;;;;;;41.22;24.30;;;;;;;;;;5095655;28;20094;-71
2021/01/22 14:18:10;;;;;;;50.20;28.95;;;;;;;;;;5092884;28;20468;-69
2021/01/22 14:20:36;;;;;;;49.60;28.98;;;;;;;;;;5092618;28;20388;-71